This is the latest recevied weather packets stored in our database for station/object JH0KSP-13. If no packets are shown the sender has not sent any weather packets the latest 10 day(s).
| Time | Temp. | Humidity | Pressure | Rain* | Wind** | Luminosity | Snow |
|---|---|---|---|---|---|---|---|
| 1777517408 | 13.89° C | 81% | 1019.7 hPa | 0 mm | - | - | - |
| 1777516809 | 13.89° C | 82% | 1019.8 hPa | 0 mm | - | - | - |
| 1777516256 | 12.78° C | 79% | 1019.8 hPa | 0 mm | - | - | - |
| 1777516209 | 12.78° C | 79% | 1019.8 hPa | 0 mm | - | - | - |
| 1777515609 | 12.78° C | 78% | 1019.9 hPa | 0 mm | - | - | - |
| 1777515056 | 12.78° C | 77% | 1020 hPa | 0 mm | - | - | - |
| 1777515009 | 12.78° C | 77% | 1020 hPa | 0 mm | - | - | - |
| 1777514409 | 12.78° C | 77% | 1020.2 hPa | 0 mm | - | - | - |
| 1777513856 | 12.78° C | 77% | 1020.3 hPa | 0 mm | - | - | - |
| 1777513809 | 12.78° C | 77% | 1020.3 hPa | 0 mm | - | - | - |
| 1777512655 | 12.78° C | 76% | 1020.4 hPa | 0 mm | - | - | - |
| 1777512609 | 12.78° C | 76% | 1020.4 hPa | 0 mm | - | - | - |
| 1777512008 | 12.78° C | 75% | 1020.5 hPa | 0 mm | - | - | - |
| 1777511457 | 12.78° C | 77% | 1020.3 hPa | 0 mm | - | - | - |
| 1777511408 | 12.78° C | 77% | 1020.3 hPa | 0 mm | - | - | - |
| 1777510257 | 12.78° C | 78% | 1020.3 hPa | 0 mm | - | - | - |
| 1777509056 | 12.22° C | 77% | 1020.2 hPa | 0 mm | - | - | - |
| 1777509008 | 12.22° C | 77% | 1020.2 hPa | 0 mm | - | - | - |
| 1777508408 | 12.22° C | 81% | 1020.1 hPa | 0 mm | - | - | - |
| 1777507856 | 12.22° C | 84% | 1020.1 hPa | 0 mm | - | - | - |
| 1777507809 | 12.22° C | 84% | 1020.1 hPa | 0 mm | - | - | - |
| 1777507210 | 12.22° C | 82% | 1020.1 hPa | 0 mm | - | - | - |
| 1777506656 | 12.22° C | 85% | 1020 hPa | 0 mm | - | - | - |
| 1777505457 | 12.22° C | 86% | 1019.9 hPa | 0 mm | - | - | - |
| 1777498256 | 10° C | 93% | 1019.6 hPa | 0 mm | - | - | - |
* Rain latest hour (hover to see other rain measurements)
** Current wind speed in m/s (hover to see current wind gust speed)